Latest Weather Observations for Melbourne Airport

IDV60801

Issued at 6:05 pm EST Wednesday 1 October 2014 (issued every 30 minutes, with the page automatically refreshed every 10 minutes)

About weather observations | Map of weather stations | Latest weather observations for VIC | Other Formats
Station Details ID: 086282 Name: MELBOURNE AIRPORT Lat: -37.67 Lon: 144.83 Height: 113.4 m
Data from the previous 72 hours. | See also: Recent months at Melbourne Airport
Date/Time
EST
Temp
°C
App
Temp
°C
Dew
Point
Rel
Hum
%
Delta-T
°C
Wind Press
QNH
hPa
Press
MSL
hPa
Rain
since 9 am
mm
Dir
 
Spd
km/h
Gust
km/h
Spd
kts
Gust
kts
01/06:00pm 12.1 8.7 5.7 65 3.0 S 13 15 7 8 1024.0 1024.0 0.0
01/05:30pm 12.9 8.6 5.1 59 3.6 S 17 20 9 11 1024.1 1024.1 0.0
01/05:00pm 12.9 8.6 5.1 59 3.6 S 17 28 9 15 1023.9 1023.9 0.0
01/04:30pm 13.1 7.0 4.9 57 3.8 SSW 26 33 14 18 1023.9 1023.9 0.0
01/04:00pm 13.8 8.6 3.6 50 4.6 WSW 20 30 11 16 1023.6 1023.6 0.0
01/03:30pm 14.2 7.5 3.6 49 4.8 SW 28 37 15 20 1023.7 1023.7 0.0
01/03:00pm 13.3 7.6 4.9 57 3.9 SSW 24 37 13 20 1023.9 1023.9 0.0
01/02:30pm 13.6 8.6 3.6 51 4.5 SSW 19 26 10 14 1023.6 1023.6 0.0
01/02:00pm 13.9 10.0 5.4 56 4.0 S 15 20 8 11 1023.5 1023.5 0.0
01/01:35pm 12.7 6.1 5.9 63 3.2 SW 30 48 16 26 1024.0 1024.0 0.0
01/01:30pm 12.3 4.8 6.4 67 2.8 SW 35 48 19 26 1024.2 1024.2 0.0
01/01:00pm 14.2 7.6 2.1 44 5.3 WSW 26 30 14 16 1024.2 1024.2 0.0
01/12:30pm 15.1 7.8 2.6 43 5.6 SW 30 37 16 20 1023.9 1023.9 0.0
01/12:00pm 14.3 7.4 0.4 38 5.9 SW 26 43 14 23 1023.8 1023.8 0.0
01/11:30am 14.0 6.7 -0.1 38 5.9 SW 28 41 15 22 1023.9 1023.9 0.0
01/11:00am 13.0 6.3 1.6 46 4.9 SW 26 37 14 20 1024.0 1024.0 0.0
01/10:30am 13.2 6.0 2.8 49 4.6 SW 30 41 16 22 1024.0 1024.0 0.0
01/10:00am 11.9 5.1 3.0 54 3.9 SW 28 41 15 22 1023.8 1023.8 0.0
01/09:30am 12.3 5.5 3.3 54 4.0 SW 28 37 15 20 1023.6 1023.7 0.0
01/09:00am 11.4 5.0 3.2 57 3.6 WSW 26 33 14 18 1023.2 1023.3 4.2
01/08:30am 10.6 3.9 3.5 61 3.1 WSW 28 35 15 19 1022.7 1022.8 4.2
01/08:00am 9.3 2.9 3.3 66 2.6 W 26 37 14 20 1022.3 1022.4 4.2
01/07:30am 8.3 2.2 2.9 69 2.3 W 24 30 13 16 1021.7 1021.8 4.2
01/07:00am 7.0 1.6 2.7 74 1.8 W 20 28 11 15 1021.3 1021.4 4.2
01/06:30am 6.0 0.3 2.9 80 1.3 W 22 30 12 16 1020.8 1020.8 4.2
01/06:00am 5.6 0.4 2.7 81 1.2 W 19 24 10 13 1020.3 1020.3 4.2
01/05:30am 5.6 0.4 2.7 81 1.2 W 19 26 10 14 1019.8 1019.8 4.2
01/05:00am 5.8 -0.4 2.4 79 1.4 W 24 30 13 16 1019.3 1019.3 4.2
01/04:30am 6.1 -0.4 2.5 78 1.5 W 26 32 14 17 1019.0 1019.0 4.2
01/04:00am 6.0 -0.6 2.3 77 1.5 W 26 33 14 18 1018.6 1018.6 4.2
01/03:30am 6.2 0.0 2.0 74 1.7 W 24 33 13 18 1018.3 1018.3 4.2
01/03:00am 6.2 0.0 2.0 74 1.7 W 24 30 13 16 1017.7 1017.8 4.2
01/02:30am 6.5 -0.9 2.1 73 1.8 W 30 39 16 21 1017.6 1017.7 4.2
01/02:00am 6.7 0.1 2.1 72 1.9 W 26 37 14 20 1017.3 1017.4 4.2
01/01:30am 7.0 0.0 1.9 70 2.1 W 28 35 15 19 1016.9 1017.0 4.2
01/01:00am 7.1 -0.3 2.0 70 2.1 W 30 37 16 20 1016.7 1016.8 4.2
01/12:30am 7.1 0.2 2.3 71 2.0 W 28 33 15 18 1016.2 1016.3 4.2
01/12:00am 7.5 0.5 2.2 69 2.2 W 28 37 15 20 1015.9 1016.0 4.2
 
Date/Time
EST
Temp
°C
App
Temp
°C
Dew
Point
Rel
Hum
%
Delta-T
°C
Wind Press
QNH
hPa
Press
MSL
hPa
Rain
since 9 am
mm
Dir
 
Spd
km/h
Gust
km/h
Spd
kts
Gust
kts
30/11:30pm 7.1 -0.6 2.5 72 1.9 W 32 44 17 24 1015.5 1015.6 4.2
30/11:00pm 7.8 -1.3 2.0 67 2.4 W 39 50 21 27 1015.3 1015.4 4.2
30/10:30pm 7.7 -0.1 1.9 67 2.4 W 32 37 17 20 1014.9 1015.0 4.2
30/10:00pm 8.3 1.3 1.8 63 2.7 W 28 35 15 19 1014.5 1014.6 4.2
30/09:30pm 8.2 2.3 2.0 65 2.6 W 22 32 12 17 1013.9 1014.0 4.2
30/09:00pm 8.4 2.3 2.8 68 2.4 W 24 30 13 16 1013.8 1013.9 4.2
30/08:30pm 8.7 2.7 3.4 69 2.3 W 24 30 13 16 1013.6 1013.6 4.2
30/08:00pm 8.9 2.7 4.1 72 2.1 W 26 33 14 18 1013.4 1013.4 4.2
30/07:30pm 8.5 2.4 4.7 77 1.7 W 26 35 14 19 1012.5 1012.5 4.2
30/07:00pm 8.6 2.1 4.8 77 1.7 W 28 33 15 18 1011.8 1011.8 4.2
30/06:30pm 9.7 0.8 3.3 64 2.8 W 39 57 21 31 1011.2 1011.2 4.0
30/06:07pm 10.4 1.3 3.9 64 2.9 W 41 70 22 38 1011.1 1011.1 4.0
30/06:00pm 10.5 3.1 5.0 69 2.5 W 33 52 18 28 1011.0 1011.0 4.0
30/05:30pm 10.1 3.7 5.3 72 2.2 W 28 35 15 19 1010.3 1010.3 4.0
30/05:00pm 10.1 1.2 5.1 71 2.3 W 41 57 22 31 1010.1 1010.1 4.0
30/04:30pm 9.2 -1.4 5.2 76 1.8 W 50 67 27 36 1010.2 1010.2 3.8
30/04:00pm 9.8 -0.5 8.2 90 0.8 WSW 52 72 28 39 1009.1 1009.2 2.8
30/03:37pm 12.2 -0.1 8.6 78 1.8 WSW 63 82 34 44 1007.1 1007.2 0.4
30/03:30pm 13.2 1.7 10.1 81 1.6 WSW 61 83 33 45 1006.4 1006.4 0.2
30/03:13pm 13.4 2.4 10.6 83 1.5 WSW 59 87 32 47 1004.9 1004.9 0.0
30/03:08pm 16.3 6.2 7.6 56 4.4 W 50 76 27 41 1005.0 1005.0 0.0
30/03:00pm 21.3 11.5 2.5 29 8.9 NW 43 70 23 38 1003.7 1003.7 0.0
30/02:52pm 21.6 12.9 2.1 27 9.1 NW 37 48 20 26 1003.4 1003.4 0.0
30/02:30pm 22.7 10.5 2.8 27 9.5 NW 56 78 30 42 1003.1 1003.1 0.0
30/02:19pm 23.6 11.7 2.4 25 10.2 NW 54 85 29 46 1003.2 1003.2 0.0
30/02:00pm 24.1 14.4 3.0 25 10.3 NW 43 67 23 36 1003.1 1003.1 0.0
30/01:30pm 22.9 13.1 3.4 28 9.5 NNW 44 65 24 35 1003.3 1003.3 0.0
30/01:05pm 22.2 14.0 4.7 32 8.7 NNW 37 65 20 35 1004.1 1004.1 0.0
30/01:00pm 22.0 14.4 5.6 34 8.3 NNW 35 52 19 28 1004.2 1004.2 0.0
30/12:30pm 20.7 13.3 5.2 36 7.7 NNW 33 54 18 29 1005.1 1005.1 0.0
30/12:00pm 19.8 12.4 6.8 42 6.6 NNW 35 56 19 30 1005.9 1005.9 0.0
30/11:30am 20.3 12.2 7.0 42 6.8 N 39 57 21 31 1006.5 1006.5 0.0
30/11:22am 19.2 11.5 7.0 45 6.2 N 37 56 20 30 1006.7 1006.8 0.0
30/11:00am 19.2 11.1 8.5 50 5.6 N 41 52 22 28 1007.0 1007.1 0.0
30/10:30am 18.9 10.7 8.1 49 5.6 N 41 54 22 29 1007.4 1007.5 0.0
30/10:00am 18.6 11.0 7.7 49 5.6 N 37 52 20 28 1008.0 1008.1 0.0
30/09:30am 18.3 10.6 8.5 52 5.1 N 39 52 21 28 1008.5 1008.6 0.0
30/09:00am 17.6 9.9 7.3 51 5.2 N 37 48 20 26 1009.3 1009.3 0.0
30/08:30am 17.2 11.3 7.3 52 5.0 N 28 39 15 21 1009.9 1009.9 0.0
30/08:00am 16.1 10.3 8.0 58 4.1 N 28 33 15 18 1010.0 1010.0 0.0
30/07:30am 14.4 9.4 8.0 65 3.2 N 24 32 13 17 1010.6 1010.6 0.0
30/07:00am 12.8 7.7 7.5 70 2.6 N 24 28 13 15 1010.8 1010.8 0.0
30/06:30am 11.7 6.9 7.4 75 2.1 N 22 26 12 14 1010.6 1010.6 0.0
30/06:00am 12.0 8.1 7.0 71 2.4 N 17 20 9 11 1010.2 1010.2 0.0
30/05:30am 12.2 8.3 7.0 70 2.5 N 17 22 9 12 1010.0 1010.0 0.0
30/05:00am 11.8 8.7 7.3 74 2.2 N 13 17 7 9 1009.5 1009.5 0.0
30/04:30am 12.0 8.5 7.3 73 2.3 N 15 19 8 10 1009.6 1009.6 0.0
30/04:00am 12.0 7.8 7.3 73 2.3 N 19 26 10 14 1009.4 1009.4 0.0
30/03:30am 10.0 6.5 7.1 82 1.4 WNW 15 17 8 9 1009.8 1009.8 0.0
30/03:00am 10.6 7.2 7.5 81 1.5 NW 15 19 8 10 1009.9 1009.9 0.0
30/02:30am 12.3 8.9 7.6 73 2.3 NNW 15 19 8 10 1010.0 1010.0 0.0
30/02:00am 11.2 6.9 7.9 80 1.6 WNW 20 24 11 13 1010.6 1010.6 0.0
30/01:30am 14.2 9.8 7.6 64 3.3 N 20 26 11 14 1010.8 1010.8 0.0
30/01:00am 13.8 9.7 8.0 68 2.9 N 19 24 10 13 1011.2 1011.2 0.0
30/12:30am 13.7 9.1 8.1 69 2.8 N 22 33 12 18 1011.5 1011.5 0.0
30/12:00am 14.8 10.2 8.3 65 3.3 N 22 28 12 15 1011.7 1011.7 0.0
 
Date/Time
EST
Temp
°C
App
Temp
°C
Dew
Point
Rel
Hum
%
Delta-T
°C
Wind Press
QNH
hPa
Press
MSL
hPa
Rain
since 9 am
mm
Dir
 
Spd
km/h
Gust
km/h
Spd
kts
Gust
kts
29/11:30pm 14.2 10.1 8.5 68 2.9 N 20 26 11 14 1012.0 1012.0 0.0
29/11:00pm 14.0 9.1 8.5 69 2.8 N 24 35 13 19 1012.2 1012.2 0.0
29/10:30pm 14.6 9.3 8.5 67 3.1 N 26 32 14 17 1012.3 1012.3 0.0
29/10:00pm 15.2 9.5 8.3 63 3.5 N 28 33 15 18 1012.2 1012.2 0.0
29/09:30pm 14.8 10.9 8.5 66 3.2 N 19 26 10 14 1012.3 1012.3 0.0
29/09:00pm 14.9 11.3 8.4 65 3.3 N 17 22 9 12 1012.3 1012.3 0.0
29/08:30pm 15.0 10.9 7.8 62 3.6 N 19 20 10 11 1012.3 1012.3 0.0
29/08:00pm 15.6 11.4 7.6 59 4.0 N 19 24 10 13 1012.1 1012.1 0.0
29/07:30pm 16.0 12.2 7.4 56 4.3 N 17 19 9 10 1011.9 1011.9 0.0
29/07:00pm 15.8 12.3 7.2 56 4.3 N 15 17 8 9 1011.7 1011.7 0.0
29/06:30pm 18.1 13.9 5.7 44 6.1 N 17 22 9 12 1011.7 1011.7 0.0
29/06:00pm 19.2 14.4 5.4 40 6.8 N 20 26 11 14 1011.5 1011.5 0.0
29/05:30pm 20.3 15.1 5.4 37 7.4 N 22 33 12 18 1011.5 1011.5 0.0
29/05:00pm 20.9 15.0 6.0 38 7.5 NNW 26 32 14 17 1011.5 1011.5 0.0
29/04:30pm 21.5 15.5 5.5 35 8.0 N 26 43 14 23 1011.2 1011.2 0.0
29/04:00pm 21.4 14.6 6.8 38 7.5 N 32 48 17 26 1011.2 1011.2 0.0
29/03:30pm 21.0 14.2 5.3 36 7.8 N 30 41 16 22 1011.4 1011.4 0.0
29/03:08pm 21.5 14.4 5.3 34 8.1 N 32 50 17 27 1011.2 1011.2 0.0
29/03:00pm 21.1 13.9 5.2 35 7.9 NNW 32 41 17 22 1011.3 1011.3 0.0
29/02:41pm 21.5 14.8 5.8 36 7.9 NNW 30 48 16 26 1011.3 1011.3 0.0
29/02:30pm 21.5 14.5 5.8 36 7.9 N 32 48 17 26 1011.4 1011.4 0.0
29/02:12pm 21.6 14.3 5.4 34 8.1 N 33 56 18 30 1011.4 1011.4 0.0
29/02:00pm 21.3 14.6 5.8 36 7.8 N 30 43 16 23 1011.6 1011.6 0.0
29/01:30pm 21.0 14.9 4.7 34 8.0 NNW 26 39 14 21 1012.3 1012.3 0.0
29/01:00pm 20.5 14.1 5.1 36 7.6 N 28 37 15 20 1012.7 1012.7 0.0
29/12:30pm 19.8 14.2 5.4 39 7.1 N 24 33 13 18 1013.0 1013.0 0.0
29/12:00pm 19.8 14.6 5.7 39 7.0 N 22 35 12 19 1013.2 1013.2 0.0
29/11:30am 19.4 14.6 5.7 40 6.8 N 20 30 11 16 1013.4 1013.4 0.0
29/11:00am 18.7 14.9 5.7 42 6.4 NNW 15 26 8 14 1013.8 1013.9 0.0
29/10:30am 17.7 13.2 5.9 46 5.8 W 19 26 10 14 1014.2 1014.3 0.0
29/10:00am 16.9 12.2 5.0 45 5.7 WNW 19 30 10 16 1014.4 1014.5 0.0
29/09:30am 16.7 11.1 5.3 47 5.5 WNW 24 30 13 16 1014.4 1014.5 0.0
29/09:00am 15.6 11.5 6.4 54 4.5 WNW 17 22 9 12 1014.4 1014.5 0.0
29/08:30am 15.6 11.9 6.1 53 4.6 WNW 15 26 8 14 1014.2 1014.3 0.0
29/08:00am 15.2 11.3 7.1 58 4.0 WNW 17 26 9 14 1014.0 1014.1 0.0
29/07:30am 14.6 10.9 7.8 63 3.4 WNW 17 22 9 12 1013.8 1013.9 0.0
29/07:00am 13.6 9.5 8.0 69 2.8 WNW 19 35 10 19 1013.6 1013.6 0.0
29/06:30am 13.2 10.9 7.3 67 2.9 N 9 15 5 8 1013.0 1013.0 0.0
29/06:00am 12.8 9.3 7.3 69 2.7 NW 15 19 8 10 1012.6 1012.6 0.0
29/05:30am 13.2 10.8 7.0 66 3.0 N 9 13 5 7 1012.2 1012.2 0.0
29/05:00am 12.8 8.8 6.6 66 3.0 W 17 24 9 13 1011.8 1011.8 0.0
29/04:30am 12.8 10.2 6.3 64 3.1 W 9 13 5 7 1011.5 1011.5 0.0
29/04:00am 13.1 9.9 5.2 58 3.7 WNW 11 15 6 8 1011.3 1011.3 0.0
29/03:30am 11.5 7.8 4.2 61 3.3 W 13 17 7 9 1010.9 1010.9 0.0
29/03:00am 12.0 8.1 3.2 55 3.9 SW 13 20 7 11 1010.8 1010.8 0.0
29/02:30am 13.5 7.6 1.8 45 5.1 W 22 30 12 16 1010.2 1010.2 0.0
29/02:00am 14.1 8.6 2.1 44 5.3 W 20 28 11 15 1010.1 1010.1 0.0
29/01:30am 15.3 9.5 2.4 42 5.8 W 22 32 12 17 1009.9 1009.9 0.0
29/01:00am 15.7 10.6 5.8 51 4.8 WSW 22 39 12 21 1009.7 1009.7 0.0
29/12:30am 15.6 11.1 8.6 63 3.6 WSW 22 33 12 18 1008.8 1008.9 0.0
29/12:00am 15.1 11.9 10.0 71 2.7 SW 17 26 9 14 1008.8 1008.9 0.0
 
Date/Time
EST
Temp
°C
App
Temp
°C
Dew
Point
Rel
Hum
%
Delta-T
°C
Wind Press
QNH
hPa
Press
MSL
hPa
Rain
since 9 am
mm
Dir
 
Spd
km/h
Gust
km/h
Spd
kts
Gust
kts
28/11:30pm 14.4 12.1 10.4 77 2.1 SSW 13 15 7 8 1008.4 1008.5 0.0
28/11:00pm 15.3 13.4 10.4 72 2.6 SSW 11 13 6 7 1007.6 1007.7 0.0
28/10:30pm 15.7 13.4 10.4 71 2.8 SSW 13 15 7 8 1007.6 1007.7 0.0
28/10:00pm 16.4 12.8 10.0 66 3.4 SSW 19 26 10 14 1007.1 1007.2 0.0
28/09:52pm 16.6 11.0 10.2 66 3.4 SSW 30 48 16 26 1007.3 1007.4 0.0
28/09:40pm 18.1 12.7 9.6 57 4.5 SW 28 41 15 22 1006.8 1006.9 0.0
28/09:30pm 23.2 17.1 3.0 26 9.8 N 24 35 13 19 1005.9 1005.9 0.0
28/09:07pm 22.1 15.7 5.1 33 8.5 NW 28 39 15 21 1006.2 1006.2 0.0
28/09:00pm 22.4 14.2 4.7 31 8.8 N 37 57 20 31 1005.4 1005.4 0.0
28/08:33pm 22.2 12.9 5.0 32 8.6 N 43 61 23 33 1004.4 1004.4 0.0
28/08:30pm 22.0 12.6 5.3 33 8.4 N 44 61 24 33 1004.4 1004.4 0.0
28/08:07pm 22.4 12.1 4.7 31 8.8 N 48 72 26 39 1004.1 1004.1 0.0
28/08:00pm 22.5 11.8 4.6 31 8.9 N 50 63 27 34 1004.1 1004.1 0.0
28/07:30pm 23.0 12.2 3.9 28 9.4 N 50 67 27 36 1003.8 1003.8 0.0
28/07:25pm 23.3 13.2 3.5 27 9.7 N 46 67 25 36 1003.8 1003.8 0.0
28/07:00pm 23.5 14.5 2.5 25 10.1 N 39 54 21 29 1004.3 1004.3 0.0
28/06:30pm 24.3 14.8 1.6 22 10.8 N 41 59 22 32 1004.2 1004.2 0.0
28/06:22pm 24.4 15.2 1.5 22 10.8 N 39 57 21 31 1004.2 1004.2 0.0

Other Formats:

Comma delimited format used in spreadsheet applications
http://www.bom.gov.au/fwo/IDV60801/IDV60801.94866.axf

JavaScript Object Notation format (JSON) in row-major order
http://www.bom.gov.au/fwo/IDV60801/IDV60801.94866.json